createdAt,value
2018-07-27T00:00:38.730Z,5.40
2018-07-27T00:03:07.108Z,5.40
2018-07-27T00:05:35.431Z,6.50
2018-07-27T00:08:03.760Z,5.10
2018-07-27T00:10:32.084Z,5.20
2018-07-27T00:13:00.380Z,5.83
2018-07-27T00:15:28.699Z,5.67
2018-07-27T00:17:57.012Z,5.73
2018-07-27T00:20:25.319Z,5.70
2018-07-27T00:22:53.644Z,5.17
2018-07-27T00:25:21.939Z,5.90
2018-07-27T00:27:50.235Z,6.03
2018-07-27T00:30:18.532Z,5.30
2018-07-27T00:32:46.848Z,6.00
2018-07-27T00:35:15.159Z,6.30
2018-07-27T00:37:43.854Z,5.40
2018-07-27T00:40:12.152Z,5.30
2018-07-27T00:42:41.082Z,5.63
2018-07-27T00:45:09.411Z,5.30
2018-07-27T00:47:37.763Z,6.17
2018-07-27T00:50:06.156Z,5.60
2018-07-27T00:52:34.467Z,5.93
2018-07-27T00:55:03.800Z,4.73
2018-07-27T00:57:32.436Z,6.17
2018-07-27T01:00:00.721Z,5.67
2018-07-27T01:02:29.063Z,5.43
2018-07-27T01:04:57.386Z,4.67
2018-07-27T01:07:25.695Z,4.30
2018-07-27T01:09:54.047Z,4.70
2018-07-27T01:12:22.380Z,4.80
2018-07-27T01:14:50.683Z,4.97
2018-07-27T01:17:19.006Z,5.13
2018-07-27T01:19:47.308Z,4.87
2018-07-27T01:22:15.646Z,4.07
2018-07-27T01:24:43.946Z,4.10
2018-07-27T01:27:12.234Z,3.90
2018-07-27T01:29:40.547Z,4.33
2018-07-27T01:32:08.923Z,4.80
2018-07-27T01:34:37.221Z,4.67
2018-07-27T01:37:05.538Z,4.30
2018-07-27T01:39:33.840Z,4.80
2018-07-27T01:42:02.174Z,5.27
2018-07-27T01:44:30.499Z,4.03
2018-07-27T01:46:58.856Z,4.40
2018-07-27T01:49:27.183Z,4.00
2018-07-27T01:51:55.483Z,4.50
2018-07-27T01:54:23.807Z,5.37
2018-07-27T01:56:52.132Z,4.77
2018-07-27T01:59:20.474Z,4.87
2018-07-27T02:01:48.798Z,4.30
2018-07-27T02:04:17.107Z,5.47
2018-07-27T02:06:45.548Z,4.87
2018-07-27T02:09:13.903Z,4.27
2018-07-27T02:11:42.216Z,4.40
2018-07-27T02:14:11.829Z,4.83
2018-07-27T02:16:40.157Z,4.97
2018-07-27T02:19:08.508Z,4.03
2018-07-27T02:21:36.800Z,3.93
2018-07-27T02:24:05.915Z,3.63
2018-07-27T02:26:34.262Z,4.10
2018-07-27T02:29:02.603Z,4.47
2018-07-27T02:31:30.943Z,4.30
2018-07-27T02:33:59.268Z,4.93
2018-07-27T02:36:27.584Z,4.20
2018-07-27T02:38:55.877Z,4.30
2018-07-27T02:41:24.205Z,4.33
2018-07-27T02:43:52.508Z,3.80
2018-07-27T02:46:21.865Z,4.10
2018-07-27T02:48:50.164Z,4.20
2018-07-27T02:51:18.525Z,4.60
2018-07-27T02:53:46.807Z,3.47
2018-07-27T02:56:15.120Z,4.13
2018-07-27T02:58:43.424Z,3.83
2018-07-27T03:01:11.748Z,3.80
2018-07-27T03:03:40.076Z,3.60
2018-07-27T03:06:08.380Z,4.43
2018-07-27T03:08:36.711Z,4.20
2018-07-27T03:11:05.050Z,3.97
2018-07-27T03:13:33.353Z,4.60
2018-07-27T03:16:01.675Z,4.03
2018-07-27T03:18:29.983Z,3.53
2018-07-27T03:20:58.324Z,5.07
2018-07-27T03:23:26.636Z,3.70
2018-07-27T03:25:54.965Z,3.97
2018-07-27T03:28:23.321Z,4.80
2018-07-27T03:30:51.656Z,3.40
2018-07-27T03:33:19.978Z,3.90
2018-07-27T03:35:48.273Z,3.93
2018-07-27T03:38:16.725Z,4.23
2018-07-27T03:40:45.036Z,4.27
2018-07-27T03:43:13.363Z,3.97
2018-07-27T03:45:41.696Z,4.70
2018-07-27T03:48:10.460Z,4.07
2018-07-27T03:50:40.415Z,4.10
2018-07-27T03:53:09.111Z,3.53
2018-07-27T03:55:37.415Z,4.30
2018-07-27T03:58:05.807Z,4.40
2018-07-27T04:00:34.140Z,4.07
2018-07-27T04:03:02.479Z,4.70
2018-07-27T04:05:30.774Z,4.30
2018-07-27T04:07:59.084Z,4.17
2018-07-27T04:10:27.880Z,4.53
2018-07-27T04:12:56.247Z,4.03
2018-07-27T04:15:24.632Z,4.50
2018-07-27T04:18:07.499Z,5.13
2018-07-27T04:20:35.805Z,4.80
2018-07-27T04:23:04.161Z,4.70
2018-07-27T04:25:32.503Z,4.70
2018-07-27T04:28:00.836Z,4.50
2018-07-27T04:30:29.158Z,4.50
2018-07-27T04:32:57.520Z,4.80
2018-07-27T04:35:25.848Z,4.83
2018-07-27T04:37:54.173Z,5.30
2018-07-27T04:40:22.536Z,4.20
2018-07-27T04:42:50.850Z,4.60
2018-07-27T04:45:19.152Z,4.33
2018-07-27T04:47:47.495Z,4.23
2018-07-27T04:50:15.824Z,3.80
2018-07-27T04:52:44.136Z,4.40
2018-07-27T04:55:12.432Z,4.87
2018-07-27T04:57:40.749Z,4.40
2018-07-27T05:00:10.020Z,4.77
2018-07-27T05:02:38.324Z,4.37
2018-07-27T05:05:06.654Z,4.20
2018-07-27T05:07:34.940Z,4.47
2018-07-27T05:10:07.563Z,4.60
2018-07-27T05:12:35.872Z,4.20
2018-07-27T05:15:04.656Z,4.70
2018-07-27T05:17:32.968Z,5.27
2018-07-27T05:20:01.316Z,4.70
2018-07-27T05:22:29.631Z,4.10
2018-07-27T05:24:57.966Z,4.60
2018-07-27T05:27:26.315Z,5.20
2018-07-27T05:29:54.659Z,5.40
2018-07-27T05:32:22.991Z,5.20
2018-07-27T05:34:51.288Z,4.90
2018-07-27T05:37:19.623Z,5.30
2018-07-27T05:39:47.928Z,5.30
2018-07-27T05:42:16.223Z,5.70
2018-07-27T05:44:44.562Z,5.10
2018-07-27T05:47:12.887Z,5.00
2018-07-27T05:49:41.171Z,5.30
2018-07-27T05:52:09.492Z,5.40
2018-07-27T05:54:37.880Z,4.60
2018-07-27T05:57:06.220Z,5.23
2018-07-27T05:59:34.533Z,5.43
2018-07-27T06:02:03.926Z,5.57
2018-07-27T06:04:32.304Z,4.90
2018-07-27T06:07:00.668Z,4.73
2018-07-27T06:09:28.967Z,5.10
2018-07-27T06:11:57.337Z,4.87
2018-07-27T06:14:25.716Z,6.20
2018-07-27T06:16:54.092Z,4.70
2018-07-27T06:19:22.500Z,5.30
2018-07-27T06:21:50.811Z,5.50
2018-07-27T06:24:19.266Z,5.10
2018-07-27T06:26:47.448Z,5.20
2018-07-27T06:29:15.808Z,4.87
2018-07-27T06:31:44.120Z,4.47
2018-07-27T06:34:12.511Z,6.27
2018-07-27T06:36:40.840Z,5.20
2018-07-27T06:39:10.315Z,5.13
2018-07-27T06:41:38.847Z,4.80
2018-07-27T06:44:07.175Z,5.03
2018-07-27T06:46:35.532Z,5.00
2018-07-27T06:49:03.883Z,5.03
2018-07-27T06:51:32.196Z,3.90
2018-07-27T06:54:00.577Z,4.80
2018-07-27T06:56:28.892Z,5.33
2018-07-27T06:58:57.196Z,4.73
2018-07-27T07:01:25.508Z,4.33
2018-07-27T07:03:53.819Z,5.80
2018-07-27T07:06:22.123Z,5.37
2018-07-27T07:08:50.448Z,5.00
2018-07-27T07:11:18.749Z,5.17
2018-07-27T07:13:47.135Z,5.30
2018-07-27T07:16:15.434Z,4.47
2018-07-27T07:18:43.766Z,5.30
2018-07-27T07:21:12.105Z,5.77
2018-07-27T07:23:40.455Z,5.33
2018-07-27T07:26:09.190Z,4.93
2018-07-27T07:28:37.187Z,5.73
2018-07-27T07:31:05.556Z,5.17
2018-07-27T07:33:33.879Z,5.00
2018-07-27T07:36:02.213Z,4.80
2018-07-27T07:38:30.748Z,4.93
2018-07-27T07:40:59.064Z,6.00
2018-07-27T07:43:27.368Z,5.87
2018-07-27T07:45:55.765Z,5.80
2018-07-27T07:48:24.089Z,5.33
2018-07-27T07:50:52.583Z,5.27
2018-07-27T07:53:20.942Z,4.60
2018-07-27T07:55:49.229Z,4.50
2018-07-27T07:58:17.549Z,5.03
2018-07-27T08:00:45.859Z,5.10
2018-07-27T08:03:14.204Z,5.13
2018-07-27T08:05:42.578Z,5.33
2018-07-27T08:08:10.868Z,4.47
2018-07-27T08:10:39.205Z,4.77
2018-07-27T08:13:07.580Z,5.10
2018-07-27T08:15:35.883Z,4.67
2018-07-27T08:18:04.341Z,4.60
2018-07-27T08:20:33.063Z,4.67
2018-07-27T08:23:01.488Z,4.43
2018-07-27T08:27:41.316Z,5.03
2018-07-27T08:30:14.100Z,4.67
2018-07-27T08:32:42.463Z,4.90
2018-07-27T08:35:10.793Z,4.70
2018-07-27T08:37:39.107Z,5.03
2018-07-27T08:40:08.069Z,4.87
2018-07-27T08:42:36.401Z,5.03
2018-07-27T08:45:05.284Z,4.70
2018-07-27T08:47:33.583Z,4.80
2018-07-27T08:50:01.913Z,5.03
2018-07-27T08:52:30.256Z,4.60
2018-07-27T08:54:58.545Z,4.30
2018-07-27T08:57:26.887Z,4.80
2018-07-27T08:59:55.224Z,4.57
2018-07-27T09:02:24.240Z,4.40
2018-07-27T09:04:52.551Z,6.73
2018-07-27T09:07:20.872Z,4.93
2018-07-27T09:09:49.180Z,7.03
2018-07-27T09:12:17.521Z,4.83
2018-07-27T09:14:45.823Z,5.50
2018-07-27T09:17:14.159Z,5.10
2018-07-27T09:19:42.432Z,7.60
2018-07-27T09:22:10.745Z,5.30
2018-07-27T09:24:39.160Z,5.40
2018-07-27T09:27:07.355Z,4.70
2018-07-27T09:29:35.672Z,4.83
2018-07-27T09:32:04.005Z,5.30
2018-07-27T09:34:32.392Z,4.47
2018-07-27T09:37:00.739Z,4.93
2018-07-27T09:39:29.075Z,4.37
2018-07-27T09:41:57.408Z,4.37
2018-07-27T09:44:27.053Z,4.87
2018-07-27T09:46:55.376Z,4.93
2018-07-27T09:49:23.704Z,4.20
2018-07-27T09:51:52.108Z,4.73
2018-07-27T09:54:20.428Z,5.57
2018-07-27T09:56:48.771Z,5.17
2018-07-27T09:59:17.100Z,5.17
2018-07-27T10:01:45.448Z,5.10
2018-07-27T10:04:13.790Z,4.40
2018-07-27T10:06:42.120Z,5.30
2018-07-27T10:09:10.425Z,4.70
2018-07-27T10:11:38.743Z,4.23
2018-07-27T10:14:07.056Z,5.07
2018-07-27T10:16:35.376Z,4.37
2018-07-27T10:19:03.728Z,5.17
2018-07-27T10:21:32.040Z,4.20
2018-07-27T10:24:00.422Z,3.87
2018-07-27T10:26:28.671Z,4.80
2018-07-27T10:28:56.980Z,4.50
2018-07-27T10:31:25.283Z,3.47
2018-07-27T10:33:53.623Z,3.90
2018-07-27T10:36:21.943Z,4.50
2018-07-27T10:38:50.296Z,3.40
2018-07-27T10:41:18.597Z,3.63
2018-07-27T10:43:46.887Z,3.80
2018-07-27T10:46:15.195Z,3.50
2018-07-27T10:48:43.536Z,3.90
2018-07-27T10:51:11.840Z,3.63
2018-07-27T10:53:40.140Z,4.10
2018-07-27T10:56:08.456Z,4.03
2018-07-27T10:58:36.764Z,3.50
2018-07-27T11:01:05.207Z,3.40
2018-07-27T11:03:33.512Z,3.77
2018-07-27T11:06:01.928Z,3.57
2018-07-27T11:08:30.244Z,3.53
2018-07-27T11:10:58.695Z,3.10
2018-07-27T11:13:27.284Z,2.90
2018-07-27T11:15:55.601Z,3.10
2018-07-27T11:18:23.907Z,3.00
2018-07-27T11:20:52.317Z,3.87
2018-07-27T11:23:20.627Z,3.50
2018-07-27T11:25:48.943Z,3.10
2018-07-27T11:28:17.524Z,3.40
2018-07-27T11:30:45.929Z,3.43
2018-07-27T11:33:14.252Z,2.70
2018-07-27T11:35:42.579Z,3.13
2018-07-27T11:38:10.887Z,2.63
2018-07-27T11:40:39.209Z,2.70
2018-07-27T11:43:07.557Z,3.60
2018-07-27T11:45:35.863Z,3.37
2018-07-27T11:48:04.207Z,3.10
2018-07-27T11:50:32.587Z,3.00
2018-07-27T11:53:00.921Z,4.30
2018-07-27T11:55:29.235Z,2.77
2018-07-27T11:57:57.583Z,2.20
2018-07-27T12:00:25.944Z,2.20
2018-07-27T12:02:54.249Z,2.23
2018-07-27T12:05:22.560Z,2.40
2018-07-27T12:07:50.902Z,2.73
2018-07-27T12:10:19.216Z,2.93
2018-07-27T12:12:47.560Z,2.03
2018-07-27T12:15:16.119Z,2.70
2018-07-27T12:17:44.332Z,2.30
2018-07-27T12:20:12.710Z,2.73
2018-07-27T12:22:41.027Z,2.30
2018-07-27T12:25:09.388Z,2.63
2018-07-27T12:27:37.748Z,2.30
2018-07-27T12:30:06.229Z,3.30
2018-07-27T12:32:34.558Z,2.73
2018-07-27T12:35:03.787Z,2.20
2018-07-27T12:37:32.092Z,1.77
2018-07-27T12:40:00.400Z,2.50
2018-07-27T12:42:28.696Z,1.47
2018-07-27T12:44:57.100Z,1.83
2018-07-27T12:47:25.400Z,1.83
2018-07-27T12:49:54.336Z,1.80
2018-07-27T12:52:23.383Z,1.67
2018-07-27T12:54:51.688Z,1.67
2018-07-27T12:57:20.000Z,1.67
2018-07-27T12:59:48.300Z,1.67
2018-07-27T13:02:16.616Z,1.70
2018-07-27T13:04:44.959Z,2.40
2018-07-27T13:07:13.261Z,1.33
2018-07-27T13:09:42.564Z,2.00
2018-07-27T13:12:11.669Z,1.90
2018-07-27T13:14:40.140Z,1.80
2018-07-27T13:17:08.479Z,1.70
2018-07-27T13:19:36.782Z,1.90
2018-07-27T13:22:05.162Z,2.33
2018-07-27T13:25:00.617Z,2.30
2018-07-27T13:27:01.772Z,1.80
2018-07-27T13:29:30.105Z,2.50
2018-07-27T13:31:59.333Z,1.93
2018-07-27T13:34:34.629Z,1.80
2018-07-27T13:37:03.238Z,1.47
2018-07-27T13:39:32.064Z,2.27
2018-07-27T13:42:01.496Z,1.70
2018-07-27T13:44:30.683Z,2.10
2018-07-27T13:46:59.069Z,1.93
2018-07-27T13:49:28.004Z,1.57
2018-07-27T13:51:56.579Z,1.60
2018-07-27T13:54:24.948Z,1.77
2018-07-27T13:56:53.281Z,1.77
2018-07-27T13:59:21.669Z,1.43
2018-07-27T14:01:50.280Z,1.80
2018-07-27T14:04:18.671Z,1.93
2018-07-27T14:06:48.928Z,2.07
2018-07-27T14:09:17.514Z,2.27
2018-07-27T14:11:45.891Z,2.07
2018-07-27T14:14:14.355Z,1.40
2018-07-27T14:16:42.953Z,1.43
2018-07-27T14:19:11.830Z,1.57
2018-07-27T14:21:40.395Z,1.60
2018-07-27T14:24:08.706Z,1.20
2018-07-27T14:26:37.003Z,1.67
2018-07-27T14:29:05.445Z,1.30
2018-07-27T14:31:33.740Z,1.57
2018-07-27T14:34:02.109Z,1.60
2018-07-27T14:36:31.187Z,1.17
2018-07-27T14:38:59.529Z,1.40
2018-07-27T14:41:27.924Z,1.33
2018-07-27T14:43:56.331Z,1.67
2018-07-27T14:46:24.652Z,1.33
2018-07-27T14:48:53.000Z,2.10
2018-07-27T14:51:21.337Z,1.63
2018-07-27T14:53:49.678Z,1.90
2018-07-27T14:56:18.140Z,1.97
2018-07-27T14:58:46.559Z,1.50
2018-07-27T15:01:14.864Z,1.60
2018-07-27T15:03:43.182Z,1.80
2018-07-27T15:06:11.543Z,1.57
2018-07-27T15:08:39.881Z,1.27
2018-07-27T15:11:08.322Z,1.00
2018-07-27T15:13:36.641Z,1.30
2018-07-27T15:16:05.102Z,1.13
2018-07-27T15:18:33.497Z,1.83
2018-07-27T15:21:10.712Z,1.40
2018-07-27T15:23:42.673Z,1.40
2018-07-27T15:26:18.350Z,1.10
2018-07-27T15:28:52.633Z,1.30
2018-07-27T15:31:27.588Z,1.50
2018-07-27T15:33:59.180Z,2.90
2018-07-27T15:39:12.595Z,2.00
2018-07-27T15:41:44.709Z,4.53
2018-07-27T15:44:23.793Z,1.50
2018-07-27T15:46:56.069Z,1.87
2018-07-27T15:49:27.965Z,2.27
2018-07-27T15:52:00.824Z,1.70
2018-07-27T15:54:36.143Z,1.70
2018-07-27T15:57:07.965Z,2.13
2018-07-27T15:59:39.549Z,1.43
2018-07-27T16:02:11.996Z,2.73
2018-07-27T16:04:45.345Z,1.67
2018-07-27T16:07:18.749Z,1.67
2018-07-27T16:09:50.396Z,1.40
2018-07-27T16:12:21.030Z,1.60
2018-07-27T16:14:53.637Z,1.57
2018-07-27T16:17:27.475Z,1.43
2018-07-27T16:20:00.365Z,1.17
2018-07-27T16:22:28.795Z,1.43
2018-07-27T16:25:03.344Z,1.50
2018-07-27T16:27:35.053Z,1.03
2018-07-27T16:30:08.789Z,1.20
2018-07-27T16:32:40.496Z,1.40
2018-07-27T16:35:15.860Z,1.40
2018-07-27T16:37:53.341Z,1.20
2018-07-27T16:40:24.666Z,1.70
2018-07-27T16:43:02.081Z,1.47
2018-07-27T16:45:37.650Z,1.40
2018-07-27T16:48:11.385Z,1.30
2018-07-27T16:50:46.919Z,1.53
2018-07-27T16:53:21.684Z,1.70
2018-07-27T16:55:55.325Z,1.27
2018-07-27T16:58:26.794Z,1.40
2018-07-27T17:01:00.539Z,1.20
2018-07-27T17:03:34.898Z,1.27
2018-07-27T17:06:10.106Z,1.47
2018-07-27T17:08:43.657Z,1.50
2018-07-27T17:11:16.883Z,1.97
2018-07-27T17:13:48.470Z,1.50
2018-07-27T17:16:20.266Z,2.00
2018-07-27T17:18:52.861Z,2.10
2018-07-27T17:21:26.727Z,1.73
2018-07-27T17:23:58.541Z,1.90
2018-07-27T17:26:29.007Z,1.80
2018-07-27T17:29:00.185Z,2.10
2018-07-27T17:31:31.839Z,2.40
2018-07-27T17:34:02.353Z,1.93
2018-07-27T17:36:35.808Z,1.80
2018-07-27T17:39:12.562Z,1.87
2018-07-27T17:41:45.098Z,2.03
2018-07-27T17:44:20.048Z,2.17
2018-07-27T17:46:57.453Z,1.80
2018-07-27T17:49:31.705Z,1.93
2018-07-27T17:52:03.086Z,2.03
2018-07-27T17:54:34.465Z,2.20
2018-07-27T17:57:06.727Z,2.00
2018-07-27T17:59:43.882Z,2.03
2018-07-27T18:02:14.533Z,1.93
2018-07-27T18:04:45.693Z,2.60
2018-07-27T18:07:17.206Z,2.10
2018-07-27T18:09:50.662Z,2.10
2018-07-27T18:12:30.685Z,2.37
2018-07-27T18:15:02.353Z,1.90
2018-07-27T18:17:36.297Z,2.30
2018-07-27T18:20:13.235Z,3.07
2018-07-27T18:22:45.461Z,9.53
2018-07-27T18:25:18.103Z,2.70
2018-07-27T18:27:52.113Z,3.03
2018-07-27T18:30:25.856Z,2.37
2018-07-27T18:33:00.945Z,2.10
2018-07-27T18:35:31.788Z,2.67
2018-07-27T18:38:05.004Z,2.10
2018-07-27T18:40:40.329Z,2.10
2018-07-27T18:43:13.289Z,2.20
2018-07-27T18:45:46.316Z,2.50
2018-07-27T18:48:17.834Z,3.03
2018-07-27T18:50:50.324Z,2.53
2018-07-27T18:53:22.665Z,2.70
2018-07-27T18:55:53.441Z,2.87
2018-07-27T18:58:24.134Z,2.93
2018-07-27T19:00:59.302Z,2.97
2018-07-27T19:03:31.105Z,3.07
2018-07-27T19:06:06.133Z,6.60
2018-07-27T19:08:36.489Z,7.67
2018-07-27T19:11:13.845Z,7.77
2018-07-27T19:13:46.867Z,4.57
2018-07-27T19:16:23.683Z,4.47
2018-07-27T19:18:57.591Z,3.47
2018-07-27T19:21:29.781Z,3.30
2018-07-27T19:24:01.301Z,4.53
2018-07-27T19:26:32.981Z,3.93
2018-07-27T19:29:05.422Z,3.90
2018-07-27T19:31:37.557Z,4.00
2018-07-27T19:34:09.231Z,3.90
2018-07-27T19:36:42.056Z,5.40
2018-07-27T19:39:17.432Z,6.07
2018-07-27T19:41:51.568Z,9.33
2018-07-27T19:44:22.863Z,7.90
2018-07-27T19:46:54.106Z,9.70
2018-07-27T19:49:30.269Z,9.70
2018-07-27T19:52:02.781Z,10.10
2018-07-27T19:54:36.686Z,9.80
2018-07-27T19:57:08.633Z,10.43
2018-07-27T19:59:52.126Z,9.57
2018-07-27T20:02:26.102Z,10.30
2018-07-27T20:04:58.048Z,12.40
2018-07-27T20:07:29.528Z,11.13
2018-07-27T20:10:02.222Z,10.90
2018-07-27T20:12:35.338Z,10.20
2018-07-27T20:15:09.212Z,13.23
2018-07-27T20:17:45.768Z,7.77
2018-07-27T20:20:18.378Z,10.23
2018-07-27T20:22:51.525Z,11.23
2018-07-27T20:25:24.209Z,10.73
2018-07-27T20:27:52.596Z,8.73
2018-07-27T20:33:01.411Z,7.90
2018-07-27T20:35:39.601Z,11.67
2018-07-27T20:38:12.819Z,9.93
2018-07-27T20:40:47.407Z,10.33
2018-07-27T20:43:21.191Z,10.27
2018-07-27T20:45:57.013Z,13.40
2018-07-27T20:48:31.869Z,12.03
2018-07-27T20:51:07.100Z,10.43
2018-07-27T20:53:42.662Z,9.33
2018-07-27T20:56:19.305Z,10.67
2018-07-27T20:58:50.947Z,10.93
2018-07-27T21:01:27.853Z,10.70
2018-07-27T21:04:06.182Z,10.40
2018-07-27T21:06:40.939Z,11.30
2018-07-27T21:09:14.626Z,10.43
2018-07-27T21:11:48.609Z,10.70
2018-07-27T21:14:20.954Z,9.80
2018-07-27T21:16:57.919Z,9.23
2018-07-27T21:19:31.099Z,11.40
2018-07-27T21:22:07.029Z,7.83
2018-07-27T21:24:35.484Z,8.97
2018-07-27T21:27:03.843Z,10.03
2018-07-27T21:29:32.136Z,8.90
2018-07-27T21:32:00.503Z,7.60
2018-07-27T21:34:28.799Z,6.97
2018-07-27T21:36:57.136Z,8.47
2018-07-27T21:39:25.450Z,8.40
2018-07-27T21:41:53.742Z,6.83
2018-07-27T21:44:22.300Z,7.97
2018-07-27T21:46:51.422Z,6.67
2018-07-27T21:49:19.767Z,6.73
2018-07-27T21:51:48.093Z,6.60
2018-07-27T21:54:16.507Z,8.33
2018-07-27T21:56:45.215Z,8.20
2018-07-27T21:59:13.681Z,8.03
2018-07-27T22:01:41.996Z,6.20
2018-07-27T22:04:10.375Z,6.83
2018-07-27T22:06:38.715Z,5.60
2018-07-27T22:09:08.922Z,5.20
2018-07-27T22:11:37.368Z,6.10
2018-07-27T22:14:05.773Z,6.27
2018-07-27T22:16:34.239Z,5.50
2018-07-27T22:19:02.561Z,6.10
2018-07-27T22:21:30.904Z,5.40
2018-07-27T22:23:59.235Z,5.63
2018-07-27T22:26:27.631Z,5.30
2018-07-27T22:28:55.943Z,5.37
2018-07-27T22:31:24.271Z,5.80
2018-07-27T22:33:53.339Z,5.90
2018-07-27T22:36:21.628Z,5.63
2018-07-27T22:38:50.056Z,5.70
2018-07-27T22:41:18.415Z,6.23
2018-07-27T22:43:46.766Z,6.23
2018-07-27T22:46:15.092Z,5.57
2018-07-27T22:48:43.376Z,5.93
2018-07-27T22:51:11.719Z,6.43
2018-07-27T22:53:40.129Z,5.73
2018-07-27T22:56:08.416Z,5.60
2018-07-27T22:58:36.756Z,6.50
2018-07-27T23:01:05.348Z,6.23
2018-07-27T23:03:33.704Z,5.67
2018-07-27T23:06:02.034Z,5.63
2018-07-27T23:08:30.400Z,6.20
2018-07-27T23:10:59.320Z,6.40
2018-07-27T23:13:28.451Z,5.70
2018-07-27T23:15:57.824Z,6.80
2018-07-27T23:18:26.458Z,6.30
2018-07-27T23:20:55.897Z,6.10
2018-07-27T23:23:24.223Z,5.80
2018-07-27T23:25:52.628Z,6.23
2018-07-27T23:28:20.943Z,5.93
2018-07-27T23:30:49.956Z,5.50
2018-07-27T23:33:18.295Z,5.77
2018-07-27T23:35:46.600Z,5.20
2018-07-27T23:38:14.911Z,5.07
2018-07-27T23:40:43.312Z,5.47
2018-07-27T23:43:11.705Z,6.27
2018-07-27T23:45:40.048Z,5.10
2018-07-27T23:48:09.403Z,5.90
2018-07-27T23:50:38.727Z,5.00
2018-07-27T23:53:07.199Z,5.27
2018-07-27T23:55:35.515Z,5.73
2018-07-27T23:58:03.862Z,5.20
